Time;durP1;ratioP1;P1;durP2;ratioP2;P2;SDS_P1;SDS_P2;PMS_P1;PMS_P2;Temp;Humidity;BMP_temperature;BMP_pressure;BME280_temperature;BME280_humidity;BME280_pressure;Samples;Min_cycle;Max_cycle;Signal;HPM_P1;HPM_P2
2021/04/17 00:02:20;;;;;;;6.70;4.40;;;;;;;6.55;100.00;98701.06;5030755;28;20199;-69
2021/04/17 00:04:47;;;;;;;6.97;4.40;;;;;;;6.52;100.00;98693.47;5022254;28;20203;-69
2021/04/17 00:07:15;;;;;;;8.43;4.60;;;;;;;6.43;100.00;98689.09;5031528;28;20731;-72
2021/04/17 00:09:42;;;;;;;6.63;4.37;;;;;;;6.27;100.00;98696.13;5032532;28;20203;-69
2021/04/17 00:12:13;;;;;;;6.60;4.37;;;;;;;6.24;100.00;98689.31;5030297;28;20203;-69
2021/04/17 00:14:41;;;;;;;6.63;4.27;;;;;;;6.24;100.00;98689.31;5026900;28;20235;-69
2021/04/17 00:17:08;;;;;;;6.03;4.33;;;;;;;6.33;100.00;98675.13;5032381;28;20209;-69
2021/04/17 00:19:35;;;;;;;7.47;4.73;;;;;;;6.32;100.00;98677.94;5028330;28;20231;-69
2021/04/17 00:22:02;;;;;;;6.37;4.53;;;;;;;6.31;100.00;98676.28;5026314;28;20709;-69
2021/04/17 00:24:29;;;;;;;5.33;4.17;;;;;;;6.32;100.00;98675.28;5026667;28;20221;-70
2021/04/17 00:26:56;;;;;;;7.40;4.87;;;;;;;6.15;100.00;98670.91;5026495;28;20233;-70
2021/04/17 00:29:23;;;;;;;7.63;5.20;;;;;;;6.14;100.00;98672.69;5028042;28;20210;-70
2021/04/17 00:31:50;;;;;;;7.33;4.73;;;;;;;6.16;100.00;98669.91;5029403;28;20203;-69
2021/04/17 00:34:17;;;;;;;10.20;4.90;;;;;;;6.03;100.00;98670.31;5027894;28;20218;-69
2021/04/17 00:36:44;;;;;;;8.63;5.40;;;;;;;6.11;100.00;98667.72;5028468;28;20234;-69
2021/04/17 00:39:11;;;;;;;9.40;5.70;;;;;;;6.17;100.00;98666.25;5031697;28;20242;-69
2021/04/17 00:41:37;;;;;;;9.30;5.30;;;;;;;6.17;100.00;98664.44;5026454;28;20210;-69
2021/04/17 00:44:05;;;;;;;7.73;5.20;;;;;;;6.13;100.00;98662.25;5027727;28;20260;-69
2021/04/17 00:46:33;;;;;;;8.30;5.17;;;;;;;6.17;100.00;98661.81;5031204;28;20245;-69
2021/04/17 00:49:01;;;;;;;8.87;5.63;;;;;;;6.19;100.00;98659.81;5027876;28;20202;-69
2021/04/17 00:51:27;;;;;;;7.03;5.27;;;;;;;6.19;100.00;98651.06;5026567;28;20198;-70
2021/04/17 00:53:54;;;;;;;7.53;5.57;;;;;;;6.12;100.00;98650.00;5020318;28;20206;-70
2021/04/17 00:56:21;;;;;;;9.10;5.90;;;;;;;6.08;100.00;98653.94;5028129;28;20225;-69
2021/04/17 00:58:49;;;;;;;7.63;5.30;;;;;;;6.05;100.00;98654.28;5019714;28;20242;-69
2021/04/17 01:01:16;;;;;;;8.07;5.50;;;;;;;6.01;100.00;98653.75;5030971;28;20223;-69
2021/04/17 01:03:49;;;;;;;8.90;5.20;;;;;;;5.99;100.00;98652.25;5031020;28;20211;-70
2021/04/17 01:06:21;;;;;;;10.43;5.87;;;;;;;5.85;100.00;98655.47;5026838;28;20217;-69
2021/04/17 01:08:51;;;;;;;7.73;5.33;;;;;;;5.94;100.00;98652.72;5022651;28;20199;-69
2021/04/17 01:11:21;;;;;;;8.23;5.60;;;;;;;6.01;100.00;98650.28;5027336;28;20206;-69
2021/04/17 01:13:49;;;;;;;11.67;5.47;;;;;;;6.04;100.00;98650.78;5025674;28;20206;-70
2021/04/17 01:16:17;;;;;;;9.63;5.70;;;;;;;5.96;100.00;98650.75;5024026;28;20225;-70
2021/04/17 01:18:45;;;;;;;9.70;6.07;;;;;;;5.93;100.00;98648.41;5025239;28;20229;-70
2021/04/17 01:21:13;;;;;;;8.10;6.07;;;;;;;5.88;100.00;98648.03;5026925;28;20202;-70
2021/04/17 01:23:42;;;;;;;9.57;5.90;;;;;;;6.07;100.00;98653.13;5023060;28;20242;-69
2021/04/17 01:26:12;;;;;;;8.40;5.73;;;;;;;6.05;100.00;98646.31;5024759;28;20223;-70
2021/04/17 01:28:40;;;;;;;12.57;6.37;;;;;;;5.98;100.00;98646.13;5021618;28;20214;-69
2021/04/17 01:31:09;;;;;;;9.83;6.70;;;;;;;6.03;100.00;98646.47;5022001;28;20214;-69
2021/04/17 01:33:38;;;;;;;10.87;6.33;;;;;;;6.11;100.00;98640.41;5022404;28;20206;-70
2021/04/17 01:36:06;;;;;;;8.37;6.00;;;;;;;5.97;100.00;98641.81;5030914;28;20222;-69
2021/04/17 01:38:35;;;;;;;10.00;6.17;;;;;;;6.02;100.00;98642.16;5021398;28;20279;-70
2021/04/17 01:41:03;;;;;;;11.67;6.03;;;;;;;6.00;100.00;98641.47;5019274;28;20207;-70
2021/04/17 01:43:32;;;;;;;9.57;5.93;;;;;;;5.98;100.00;98630.22;5021464;28;20219;-70
2021/04/17 01:46:03;;;;;;;11.07;5.90;;;;;;;6.03;100.00;98619.13;5017841;28;20228;-69
2021/04/17 02:05:24;;;;;;;8.43;5.87;;;;;;;5.59;100.00;98633.41;5026197;28;20213;-70
2021/04/17 02:07:51;;;;;;;14.50;7.00;;;;;;;5.58;100.00;98624.63;5026339;28;20619;-70
2021/04/17 02:10:18;;;;;;;10.67;6.70;;;;;;;5.62;100.00;98623.34;5024806;28;20205;-70
2021/04/17 02:12:45;;;;;;;13.43;7.20;;;;;;;5.41;100.00;98622.00;5021161;28;20210;-70
2021/04/17 02:15:12;;;;;;;10.73;6.57;;;;;;;5.44;100.00;98625.19;5029540;28;20232;-70
2021/04/17 02:17:50;;;;;;;11.40;7.03;;;;;;;5.51;100.00;98625.41;5029019;28;20206;-69
2021/04/17 02:20:21;;;;;;;11.07;7.13;;;;;;;5.55;100.00;98619.66;5029231;28;20213;-70
2021/04/17 02:22:49;;;;;;;11.40;7.50;;;;;;;5.56;100.00;98623.97;5022016;28;20213;-70
2021/04/17 02:25:17;;;;;;;12.57;7.90;;;;;;;5.61;100.00;98626.13;5029243;28;20725;-69
2021/04/17 02:27:44;;;;;;;10.30;6.63;;;;;;;5.55;100.00;98622.31;5027979;28;20209;-69
2021/04/17 02:30:11;;;;;;;11.97;7.10;;;;;;;5.77;100.00;98619.13;5028895;28;20199;-69
2021/04/17 02:32:38;;;;;;;12.67;7.87;;;;;;;5.67;100.00;98626.34;5028161;28;20880;-69
2021/04/17 02:35:06;;;;;;;14.80;7.73;;;;;;;5.69;100.00;98620.91;5028044;28;20606;-70
2021/04/17 02:37:33;;;;;;;13.37;7.53;;;;;;;5.64;100.00;98621.34;5027646;28;20202;-70
2021/04/17 02:40:00;;;;;;;15.30;8.17;;;;;;;5.70;100.00;98617.28;5030073;28;20236;-70
2021/04/17 02:42:27;;;;;;;12.63;8.00;;;;;;;5.79;100.00;98627.75;5016722;28;20581;-70
2021/04/17 02:44:54;;;;;;;9.03;6.77;;;;;;;5.74;100.00;98621.28;5020319;28;20236;-70
2021/04/17 02:47:21;;;;;;;11.73;7.90;;;;;;;5.71;100.00;98619.78;5025402;28;20677;-69
2021/04/17 02:49:47;;;;;;;12.13;8.00;;;;;;;5.82;100.00;98621.34;5029702;28;20636;-69
2021/04/17 02:52:14;;;;;;;13.57;8.07;;;;;;;5.74;100.00;98616.78;5026130;28;20599;-70
2021/04/17 02:54:41;;;;;;;11.93;7.93;;;;;;;5.79;100.00;98616.34;5024124;28;20206;-70
2021/04/17 02:57:09;;;;;;;12.03;8.30;;;;;;;5.73;100.00;98620.44;5027166;28;20210;-70
2021/04/17 02:59:35;;;;;;;12.97;8.40;;;;;;;5.88;100.00;98618.06;5030630;28;20230;-70
2021/04/17 03:02:02;;;;;;;12.13;7.70;;;;;;;5.74;100.00;98619.44;5033967;28;20210;-70
2021/04/17 03:04:29;;;;;;;13.50;8.40;;;;;;;5.77;100.00;98615.66;5030431;28;20199;-70
2021/04/17 03:06:56;;;;;;;13.77;8.03;;;;;;;5.81;100.00;98617.03;5032129;28;20241;-70
2021/04/17 03:09:23;;;;;;;13.33;8.40;;;;;;;5.81;100.00;98615.22;5026674;28;20209;-70
2021/04/17 03:11:49;;;;;;;14.60;7.97;;;;;;;5.83;100.00;98609.78;5030032;28;20313;-70
2021/04/17 03:14:17;;;;;;;11.83;8.20;;;;;;;5.78;100.00;98609.38;5028991;28;20202;-70
2021/04/17 03:16:44;;;;;;;12.30;7.57;;;;;;;5.74;100.00;98606.19;5029893;28;20222;-70
2021/04/17 03:19:11;;;;;;;14.67;8.17;;;;;;;5.82;100.00;98606.28;5025705;28;20687;-70
2021/04/17 03:21:37;;;;;;;12.37;7.63;;;;;;;5.80;100.00;98604.78;5028419;28;20202;-70
2021/04/17 03:24:05;;;;;;;13.73;7.80;;;;;;;5.66;100.00;98605.31;5025543;28;20290;-70
2021/04/17 03:26:32;;;;;;;13.63;8.70;;;;;;;5.55;100.00;98603.78;5030672;28;20704;-70
2021/04/17 03:28:58;;;;;;;12.87;8.53;;;;;;;5.50;100.00;98599.91;5029184;28;20240;-69
2021/04/17 03:31:26;;;;;;;13.37;8.03;;;;;;;5.54;100.00;98596.78;5024342;28;20568;-70
2021/04/17 03:33:53;;;;;;;14.00;8.90;;;;;;;5.70;100.00;98596.94;5021306;28;20206;-70
2021/04/17 03:36:20;;;;;;;11.13;8.03;;;;;;;5.80;100.00;98600.34;5024401;28;20221;-70
2021/04/17 03:38:46;;;;;;;13.50;8.53;;;;;;;5.79;100.00;98598.63;5025192;28;20273;-70
2021/04/17 03:41:13;;;;;;;14.53;8.70;;;;;;;5.80;100.00;98605.63;5030486;28;20229;-70
2021/04/17 03:43:40;;;;;;;14.97;9.57;;;;;;;5.80;100.00;98604.78;5029546;28;20631;-69
2021/04/17 03:46:07;;;;;;;15.70;9.60;;;;;;;5.70;100.00;98604.88;5026469;28;20229;-69
2021/04/17 03:48:34;;;;;;;14.30;8.80;;;;;;;5.76;100.00;98598.94;5026286;28;20294;-69
2021/04/17 03:51:02;;;;;;;13.80;9.03;;;;;;;5.81;100.00;98607.28;5020072;28;20277;-69
2021/04/17 03:53:29;;;;;;;13.83;8.80;;;;;;;5.69;100.00;98605.84;5032259;28;20256;-71
2021/04/17 03:55:55;;;;;;;16.63;9.30;;;;;;;5.56;100.00;98602.78;5027370;28;20236;-70
2021/04/17 03:58:23;;;;;;;19.63;9.30;;;;;;;5.73;100.00;98601.91;5019678;28;20625;-70
2021/04/17 04:00:49;;;;;;;15.17;8.90;;;;;;;5.75;100.00;98607.03;5029735;28;20207;-69
2021/04/17 04:03:16;;;;;;;12.40;8.93;;;;;;;5.70;100.00;98607.53;5030537;28;20763;-70
2021/04/17 04:05:44;;;;;;;15.37;8.67;;;;;;;5.51;100.00;98610.38;5028243;28;20281;-70
2021/04/17 04:08:10;;;;;;;17.73;9.23;;;;;;;5.48;100.00;98615.94;5023281;28;20203;-70
2021/04/17 04:10:37;;;;;;;14.63;8.63;;;;;;;5.43;100.00;98615.59;5025724;28;20253;-70
2021/04/17 04:13:04;;;;;;;15.47;9.80;;;;;;;5.26;100.00;98618.25;5030254;28;20198;-69
2021/04/17 04:15:31;;;;;;;16.53;9.90;;;;;;;5.35;100.00;98623.47;5021884;28;20368;-70
2021/04/17 04:17:58;;;;;;;16.17;9.90;;;;;;;5.22;100.00;98623.03;5018674;28;20725;-70
2021/04/17 04:20:25;;;;;;;17.67;9.67;;;;;;;5.34;100.00;98615.69;5017479;28;20226;-70
2021/04/17 04:22:53;;;;;;;17.13;10.43;;;;;;;5.37;100.00;98615.38;5016594;28;20671;-70
2021/04/17 04:25:20;;;;;;;15.67;9.77;;;;;;;5.38;100.00;98622.34;5030550;28;20241;-70
2021/04/17 04:27:47;;;;;;;15.47;9.83;;;;;;;5.26;100.00;98618.25;5032114;28;20677;-70
2021/04/17 04:30:14;;;;;;;16.57;10.37;;;;;;;5.32;100.00;98625.56;5032225;28;20199;-70
2021/04/17 04:32:41;;;;;;;14.97;9.87;;;;;;;5.34;100.00;98615.69;5030904;28;20213;-69
2021/04/17 04:35:09;;;;;;;19.13;10.80;;;;;;;5.29;100.00;98624.06;5031371;28;20778;-69
2021/04/17 04:37:35;;;;;;;15.03;9.60;;;;;;;5.27;100.00;98620.75;5021288;28;20226;-69
2021/04/17 04:40:04;;;;;;;17.67;10.43;;;;;;;5.10;100.00;98628.69;5031865;28;20218;-70
2021/04/17 04:42:31;;;;;;;17.73;10.37;;;;;;;5.09;100.00;98624.41;5031838;28;20210;-70
2021/04/17 04:44:58;;;;;;;20.00;10.83;;;;;;;5.07;100.00;98629.03;5029744;28;20240;-70
2021/04/17 04:47:25;;;;;;;16.93;10.47;;;;;;;5.15;100.00;98631.72;5030241;28;20211;-70
2021/04/17 04:49:51;;;;;;;16.47;10.63;;;;;;;5.34;100.00;98620.97;5028561;28;20210;-70
2021/04/17 04:52:18;;;;;;;22.13;10.60;;;;;;;5.40;100.00;98621.19;5027224;28;20203;-70
2021/04/17 04:54:45;;;;;;;15.97;10.03;;;;;;;5.40;100.00;98621.19;5025038;28;20202;-70
2021/04/17 04:57:12;;;;;;;19.43;10.90;;;;;;;5.53;100.00;98621.63;5029629;28;20564;-70
2021/04/17 04:59:39;;;;;;;18.27;10.57;;;;;;;5.61;100.00;98631.44;5025367;28;20239;-70
2021/04/17 05:02:06;;;;;;;19.47;10.50;;;;;;;5.52;100.00;98619.97;5028293;28;20595;-70
2021/04/17 05:04:33;;;;;;;17.03;10.83;;;;;;;5.65;100.00;98632.78;5027855;28;20217;-70
2021/04/17 05:07:00;;;;;;;16.63;10.17;;;;;;;5.59;100.00;98630.78;5028552;28;20238;-71
2021/04/17 05:09:27;;;;;;;15.87;10.07;;;;;;;5.57;100.00;98630.91;5028136;28;20199;-70
2021/04/17 05:11:53;;;;;;;18.70;10.33;;;;;;;5.72;100.00;98629.38;5029124;28;20241;-70
2021/04/17 05:14:22;;;;;;;17.27;10.43;;;;;;;5.89;100.00;98623.22;5024949;28;20202;-70
2021/04/17 05:16:48;;;;;;;17.87;11.07;;;;;;;5.98;100.00;98632.03;5023063;28;20258;-72
2021/04/17 05:19:15;;;;;;;18.27;10.37;;;;;;;5.96;100.00;98629.56;5029817;28;20229;-71
2021/04/17 05:21:42;;;;;;;17.60;11.03;;;;;;;6.19;100.00;98627.19;5031074;28;20463;-70
2021/04/17 05:24:09;;;;;;;18.77;10.80;;;;;;;6.30;100.00;98630.38;5026579;28;20210;-73
2021/04/17 05:26:36;;;;;;;17.13;11.00;;;;;;;6.46;100.00;98633.13;5023578;28;20225;-72
2021/04/17 05:29:03;;;;;;;14.77;9.67;;;;;;;6.55;100.00;98631.31;5027725;28;20200;-73
2021/04/17 05:31:31;;;;;;;15.97;10.30;;;;;;;6.67;100.00;98630.03;5027232;28;20202;-71
2021/04/17 05:33:58;;;;;;;15.23;9.93;;;;;;;6.73;100.00;98632.03;5025476;28;20263;-73
2021/04/17 05:36:25;;;;;;;15.93;10.03;;;;;;;6.92;100.00;98629.94;5026769;28;20222;-72
2021/04/17 05:38:53;;;;;;;19.10;10.13;;;;;;;6.98;100.00;98631.09;5026701;28;20219;-73
2021/04/17 05:41:20;;;;;;;20.23;10.30;;;;;;;6.97;100.00;98629.44;5027407;28;20210;-73
2021/04/17 05:43:47;;;;;;;16.23;10.00;;;;;;;7.21;100.00;98634.78;5028661;28;20214;-73
2021/04/17 05:46:14;;;;;;;16.47;10.20;;;;;;;7.35;100.00;98636.75;5027565;28;20231;-73
2021/04/17 05:48:41;;;;;;;14.67;9.20;;;;;;;7.20;100.00;98633.94;5027424;28;20202;-69
2021/04/17 05:51:08;;;;;;;17.23;10.07;;;;;;;7.52;100.00;98633.13;5027023;28;20281;-71
2021/04/17 05:53:35;;;;;;;14.87;9.37;;;;;;;7.20;100.00;98636.59;5025653;28;20587;-70
2021/04/17 05:56:02;;;;;;;18.00;9.23;;;;;;;7.58;100.00;98635.97;5030503;28;20599;-70
2021/04/17 05:58:28;;;;;;;15.07;8.87;;;;;;;7.71;100.00;98636.25;5024898;28;20266;-70
2021/04/17 06:00:55;;;;;;;15.27;9.47;;;;;;;7.76;100.00;98641.09;5026482;28;20203;-71
2021/04/17 06:03:22;;;;;;;17.77;9.33;;;;;;;7.79;100.00;98635.44;5018441;28;20238;-71
2021/04/17 06:05:50;;;;;;;14.97;9.07;;;;;;;7.55;100.00;98638.94;5025427;28;20323;-70
2021/04/17 06:08:18;;;;;;;16.30;9.93;;;;;;;7.57;100.00;98630.81;5026993;28;20627;-70
2021/04/17 06:10:45;;;;;;;16.40;9.53;;;;;;;7.79;100.00;98633.63;5019744;28;20246;-70
2021/04/17 06:13:12;;;;;;;14.13;9.03;;;;;;;7.55;100.00;98638.94;5024302;28;20204;-70
2021/04/17 06:15:38;;;;;;;14.13;9.03;;;;;;;7.63;100.00;98630.13;5028302;28;20232;-71
2021/04/17 06:18:06;;;;;;;14.33;8.83;;;;;;;7.18;100.00;98638.59;5024959;28;20207;-70
2021/04/17 06:20:32;;;;;;;14.17;8.97;;;;;;;7.74;100.00;98633.28;5018197;28;20231;-72
2021/04/17 06:23:00;;;;;;;14.63;9.07;;;;;;;8.15;100.00;98642.84;5023890;28;20202;-71
2021/04/17 06:25:27;;;;;;;14.23;9.07;;;;;;;8.44;99.86;98642.28;5025701;28;20233;-74
2021/04/17 06:27:54;;;;;;;15.17;9.10;;;;;;;7.95;100.00;98638.91;5029783;28;20205;-76
2021/04/17 06:30:21;;;;;;;15.17;8.30;;;;;;;8.28;100.00;98639.69;5032126;28;20543;-78
2021/04/17 06:32:49;;;;;;;16.20;9.63;;;;;;;8.27;100.00;98638.03;5033357;28;20218;-70
2021/04/17 06:35:15;;;;;;;15.10;9.40;;;;;;;8.27;100.00;98641.50;5033771;28;20229;-75
2021/04/17 06:37:42;;;;;;;14.40;8.77;;;;;;;8.57;95.88;98639.91;5033705;28;20338;-75
2021/04/17 06:40:11;;;;;;;14.70;8.53;;;;;;;8.36;99.93;98642.28;5040055;28;20224;-74
2021/04/17 06:42:41;;;;;;;16.70;8.73;;;;;;;8.92;95.87;98636.72;5038015;28;20213;-79
2021/04/17 06:45:09;;;;;;;16.73;9.10;;;;;;;8.40;97.89;98632.97;5035221;28;20225;-77
2021/04/17 06:47:36;;;;;;;13.83;8.73;;;;;;;8.12;100.00;98629.88;5033035;28;20226;-74
2021/04/17 06:50:05;;;;;;;15.50;9.03;;;;;;;8.94;94.06;98640.03;5031123;28;20205;-72
2021/04/17 06:52:33;;;;;;;15.97;9.60;;;;;;;9.54;88.12;98636.44;5030976;28;20293;-71
2021/04/17 06:55:00;;;;;;;13.57;8.73;;;;;;;8.93;92.23;98630.41;5030759;28;20233;-71
2021/04/17 06:57:27;;;;;;;16.13;9.07;;;;;;;9.30;88.59;98633.16;5032375;28;20208;-72
2021/04/17 06:59:54;;;;;;;14.40;8.70;;;;;;;9.75;82.98;98630.44;5029652;28;20223;-72
2021/04/17 07:02:21;;;;;;;13.40;8.63;;;;;;;9.53;85.46;98633.94;5025134;28;20590;-71
2021/04/17 07:04:51;;;;;;;15.37;8.83;;;;;;;8.68;92.58;98626.22;5025757;28;20213;-70
2021/04/17 07:07:18;;;;;;;15.23;8.83;;;;;;;8.68;91.98;98635.00;5030101;28;20206;-72
2021/04/17 07:09:45;;;;;;;13.87;8.73;;;;;;;8.73;92.40;98634.50;5032637;28;20199;-69
2021/04/17 07:12:13;;;;;;;12.63;8.27;;;;;;;9.33;90.33;98625.63;5025168;28;20234;-71
2021/04/17 07:14:46;;;;;;;15.37;8.77;;;;;;;9.47;87.23;98632.00;5027772;28;20210;-67
2021/04/17 07:17:13;;;;;;;14.67;8.73;;;;;;;8.94;87.28;98630.22;5029279;28;20302;-69
2021/04/17 07:19:49;;;;;;;13.27;8.70;;;;;;;9.40;85.72;98634.59;5027827;28;20694;-69
2021/04/17 07:22:17;;;;;;;13.37;8.53;;;;;;;8.54;89.86;98637.59;5027947;28;20210;-70
2021/04/17 07:24:44;;;;;;;14.93;8.70;;;;;;;8.37;96.03;98630.69;5024077;28;20297;-69
2021/04/17 07:27:30;;;;;;;14.00;9.33;;;;;;;8.55;92.85;98629.44;5024362;28;20228;-70
2021/04/17 07:29:59;;;;;;;13.47;8.20;;;;;;;8.82;88.12;98626.28;5022130;28;20674;-68
2021/04/17 07:32:25;;;;;;;12.53;7.20;;;;;;;9.76;78.95;98640.09;5026348;28;20206;-68
2021/04/17 07:35:14;;;;;;;12.97;8.87;;;;;;;9.50;81.42;98635.16;5025429;28;20245;-68
2021/04/17 07:37:43;;;;;;;14.13;8.07;;;;;;;9.91;79.06;98638.28;5017279;28;20206;-68
2021/04/17 07:40:18;;;;;;;13.50;7.63;;;;;;;9.86;79.69;98633.50;5022318;28;20234;-68
2021/04/17 07:42:46;;;;;;;14.90;8.53;;;;;;;9.34;81.77;98631.78;5026698;28;20213;-68
2021/04/17 07:45:25;;;;;;;16.53;8.40;;;;;;;9.26;82.89;98626.50;5023616;28;20230;-70
2021/04/17 07:47:54;;;;;;;13.57;8.20;;;;;;;9.50;81.13;98629.84;5025824;28;20213;-68
2021/04/17 07:50:22;;;;;;;13.50;8.30;;;;;;;10.09;79.21;98622.81;5029935;28;20194;-68
2021/04/17 07:52:49;;;;;;;13.47;8.33;;;;;;;9.80;78.03;98628.06;5025159;28;20713;-68
2021/04/17 07:55:18;;;;;;;13.67;7.93;;;;;;;9.53;81.02;98618.81;5028577;28;20718;-68
2021/04/17 07:57:46;;;;;;;13.53;7.87;;;;;;;9.75;79.76;98620.59;5030577;28;20242;-68
2021/04/17 08:00:15;;;;;;;12.20;7.87;;;;;;;9.25;79.59;98619.53;5019790;28;20563;-70
2021/04/17 08:02:46;;;;;;;14.73;8.23;;;;;;;9.39;78.08;98624.91;5026028;28;20209;-68
2021/04/17 08:05:15;;;;;;;12.83;7.97;;;;;;;9.42;77.05;98624.56;5020042;28;20309;-68
2021/04/17 08:07:42;;;;;;;12.63;8.03;;;;;;;9.43;75.33;98612.88;5023904;28;20223;-71
2021/04/17 08:10:10;;;;;;;12.17;6.97;;;;;;;9.25;77.50;98614.22;5030968;28;20198;-70
2021/04/17 08:12:38;;;;;;;11.03;6.87;;;;;;;9.41;76.00;98609.59;5030640;28;20207;-70
2021/04/17 08:15:07;;;;;;;12.97;7.07;;;;;;;9.60;74.12;98619.72;5016327;28;20219;-70
2021/04/17 08:17:37;;;;;;;11.07;6.37;;;;;;;9.53;72.79;98618.81;5024249;28;20568;-70
2021/04/17 08:20:06;;;;;;;11.80;6.87;;;;;;;10.32;70.31;98619.06;5032809;28;20218;-69
2021/04/17 08:22:33;;;;;;;11.77;7.10;;;;;;;9.91;69.72;98620.47;5027753;28;20254;-71
2021/04/17 08:25:00;;;;;;;9.40;5.63;;;;;;;9.74;72.00;98621.59;5016814;28;20255;-70
2021/04/17 08:27:30;;;;;;;9.73;6.50;;;;;;;10.18;69.62;98615.56;5023265;28;20260;-69
2021/04/17 08:29:57;;;;;;;11.23;6.80;;;;;;;11.15;65.23;98616.75;5028536;28;20203;-68
2021/04/17 08:32:30;;;;;;;11.93;7.27;;;;;;;10.85;65.87;98624.03;5022311;28;20213;-69
2021/04/17 08:35:06;;;;;;;12.37;6.63;;;;;;;10.21;68.42;98616.00;5032593;28;20225;-70
2021/04/17 08:37:34;;;;;;;12.03;6.60;;;;;;;10.22;69.38;98614.19;5026317;28;20254;-69
2021/04/17 08:40:01;;;;;;;11.67;6.43;;;;;;;10.69;64.74;98618.06;5018979;28;20229;-70
2021/04/17 08:42:44;;;;;;;9.07;5.47;;;;;;;10.87;63.05;98610.50;5026295;28;20215;-70
2021/04/17 08:45:14;;;;;;;11.17;6.13;;;;;;;10.04;63.38;98623.34;5026113;28;20234;-69
2021/04/17 08:47:47;;;;;;;12.13;5.80;;;;;;;10.85;60.52;98616.03;5022745;28;20226;-70
2021/04/17 08:50:32;;;;;;;10.53;5.70;;;;;;;11.21;57.41;98632.06;5026010;28;20203;-69
2021/04/17 08:53:02;;;;;;;7.03;4.77;;;;;;;10.43;59.32;98624.94;5019032;28;20223;-69
2021/04/17 08:55:30;;;;;;;11.90;5.40;;;;;;;10.18;62.40;98618.22;5026652;28;20730;-69
2021/04/17 08:58:14;;;;;;;7.90;4.77;;;;;;;10.91;58.63;98620.59;5025664;28;20228;-70
2021/04/17 09:00:43;;;;;;;8.73;5.20;;;;;;;10.83;58.34;98630.56;5024320;28;20224;-71
2021/04/17 09:03:18;;;;;;;9.07;4.83;;;;;;;11.47;57.13;98624.28;5020740;28;20207;-70
2021/04/17 09:05:47;;;;;;;5.90;4.47;;;;;;;11.40;53.69;98634.91;5025571;28;20223;-71
2021/04/17 09:08:15;;;;;;;6.20;4.20;;;;;;;11.10;54.84;98625.34;5017233;28;20211;-70
2021/04/17 09:10:42;;;;;;;10.67;5.10;;;;;;;11.18;54.13;98625.25;5026489;28;20573;-70
2021/04/17 09:13:43;;;;;;;7.67;4.30;;;;;;;11.28;56.64;98617.75;5021922;28;20294;-70
2021/04/17 09:16:09;;;;;;;9.40;5.00;;;;;;;11.06;58.29;98618.72;4959447;28;20229;-70
2021/04/17 09:18:43;;;;;;;7.80;5.50;;;;;;;10.77;59.55;98613.47;4958290;28;20208;-70
2021/04/17 09:21:35;;;;;;;7.67;5.13;;;;;;;10.18;62.65;98606.53;4999281;28;20214;-69
2021/04/17 09:24:04;;;;;;;9.63;5.83;;;;;;;10.54;61.31;98615.44;5022826;28;20305;-70
2021/04/17 09:26:41;;;;;;;7.70;5.00;;;;;;;11.60;58.38;98611.06;5027622;28;20266;-69
2021/04/17 09:29:25;;;;;;;7.87;5.57;;;;;;;11.99;54.38;98614.06;5021340;28;20626;-70
2021/04/17 09:31:52;;;;;;;8.93;5.50;;;;;;;11.00;58.67;98610.63;5026600;28;20258;-70
2021/04/17 09:34:19;;;;;;;7.93;5.03;;;;;;;10.95;60.14;98608.53;5018499;28;20214;-69
2021/04/17 09:36:50;;;;;;;7.20;4.97;;;;;;;10.90;58.09;98602.13;5018737;28;20700;-70
2021/04/17 09:39:25;;;;;;;6.67;4.20;;;;;;;11.27;51.40;98617.94;5018502;28;20273;-68
2021/04/17 09:41:55;;;;;;;7.07;4.50;;;;;;;11.31;52.58;98613.88;5029520;28;20216;-68
2021/04/17 09:44:23;;;;;;;7.07;4.30;;;;;;;11.49;51.97;98612.41;5030348;28;20730;-70
2021/04/17 09:47:06;;;;;;;7.27;4.60;;;;;;;11.54;52.09;98603.78;5028758;28;20229;-68
2021/04/17 09:49:35;;;;;;;7.57;4.37;;;;;;;12.02;50.08;98617.16;5016191;28;20739;-70
2021/04/17 09:52:04;;;;;;;7.27;4.57;;;;;;;11.88;49.11;98612.72;5019609;28;20205;-69
2021/04/17 09:54:31;;;;;;;6.90;3.97;;;;;;;12.28;49.23;98605.81;5022330;28;20217;-70
2021/04/17 09:56:57;;;;;;;6.70;4.03;;;;;;;12.28;49.34;98606.63;5018868;28;20622;-70
2021/04/17 09:59:24;;;;;;;7.07;4.17;;;;;;;12.05;49.44;98599.09;5014571;28;20317;-69
2021/04/17 10:01:52;;;;;;;8.97;4.70;;;;;;;11.77;49.38;98596.41;5027293;28;20209;-68
2021/04/17 10:04:19;;;;;;;9.83;3.93;;;;;;;11.66;49.99;98588.94;5017994;28;20204;-69
2021/04/17 10:06:55;;;;;;;8.87;4.40;;;;;;;11.20;50.67;98590.28;5019961;28;20233;-69
2021/04/17 10:09:23;;;;;;;6.80;4.43;;;;;;;11.31;49.32;98598.63;5021774;28;20208;-70
2021/04/17 10:11:50;;;;;;;7.40;3.87;;;;;;;11.33;50.22;98583.25;5024930;28;20211;-69
2021/04/17 10:14:18;;;;;;;9.13;3.70;;;;;;;11.90;49.39;98593.00;5022099;28;20208;-70
2021/04/17 10:16:47;;;;;;;6.57;4.80;;;;;;;11.78;50.43;98582.03;5020057;28;20229;-70
2021/04/17 10:19:16;;;;;;;7.83;4.53;;;;;;;12.57;46.69;98586.00;5020977;28;20229;-71
2021/04/17 10:21:45;;;;;;;6.10;3.60;;;;;;;12.68;47.55;98588.09;5020196;28;20772;-71
2021/04/17 10:24:27;;;;;;;6.80;3.93;;;;;;;11.62;50.05;98584.13;5018795;28;20216;-70
2021/04/17 10:26:57;;;;;;;6.00;4.07;;;;;;;11.16;52.29;98573.03;5024852;28;20229;-70
2021/04/17 10:29:34;;;;;;;6.23;3.80;;;;;;;11.98;49.86;98574.13;5024019;28;20213;-69
2021/04/17 10:32:02;;;;;;;7.83;4.23;;;;;;;12.78;47.85;98579.47;5027172;28;20216;-71
2021/04/17 10:34:29;;;;;;;6.43;4.23;;;;;;;12.37;48.01;98574.38;5029991;28;20273;-69
2021/04/17 10:36:58;;;;;;;8.50;3.87;;;;;;;12.76;45.98;98580.72;5023859;28;20229;-71
2021/04/17 10:39:26;;;;;;;4.50;3.10;;;;;;;12.32;45.90;98582.16;5017851;28;20240;-71
2021/04/17 10:42:00;;;;;;;8.00;4.07;;;;;;;11.76;46.78;98576.03;5021293;28;20681;-70
2021/04/17 10:44:27;;;;;;;4.00;3.50;;;;;;;12.03;47.07;98573.34;5017122;28;20292;-71
2021/04/17 10:46:54;;;;;;;5.13;3.23;;;;;;;12.32;47.70;98568.78;5021480;28;20229;-71
2021/04/17 10:49:32;;;;;;;4.97;3.80;;;;;;;12.31;46.74;98567.94;5023732;28;20204;-71
2021/04/17 10:52:02;;;;;;;5.37;3.30;;;;;;;12.31;44.79;98573.28;5024297;28;20283;-71
2021/04/17 10:54:29;;;;;;;4.43;3.23;;;;;;;12.46;44.65;98567.81;5024071;28;20250;-71
2021/04/17 10:56:59;;;;;;;5.97;3.97;;;;;;;12.77;44.14;98564.44;5029695;28;20313;-71
2021/04/17 10:59:26;;;;;;;7.53;3.70;;;;;;;12.68;45.54;98562.16;5025087;28;20654;-71
2021/04/17 11:01:53;;;;;;;5.30;3.70;;;;;;;12.12;45.27;98568.69;5018746;28;20573;-71
2021/04/17 11:04:20;;;;;;;7.27;3.40;;;;;;;12.88;45.66;98555.81;5021317;28;20206;-71
2021/04/17 11:06:49;;;;;;;6.47;3.50;;;;;;;12.84;44.64;98556.44;5021271;28;20281;-71
2021/04/17 11:09:19;;;;;;;5.30;3.30;;;;;;;12.48;44.35;98550.53;5027857;28;20203;-71
2021/04/17 11:11:54;;;;;;;4.30;3.00;;;;;;;12.31;44.31;98548.41;5013064;28;20208;-71
2021/04/17 11:14:22;;;;;;;5.07;2.93;;;;;;;12.52;43.74;98553.63;5017487;28;20226;-71
2021/04/17 11:16:51;;;;;;;4.37;3.03;;;;;;;12.77;44.02;98545.69;5027981;28;20778;-71
2021/04/17 11:19:25;;;;;;;4.80;2.80;;;;;;;13.66;41.54;98544.41;5021606;28;20539;-69
2021/04/17 11:22:08;;;;;;;5.67;3.57;;;;;;;13.94;40.56;98534.25;5029839;28;20209;-69
2021/04/17 11:24:36;;;;;;;4.83;3.07;;;;;;;13.59;40.96;98537.38;5020547;28;20216;-69
2021/04/17 11:27:04;;;;;;;5.00;2.77;;;;;;;13.24;40.43;98541.28;5032721;28;20230;-71
2021/04/17 11:29:30;;;;;;;4.87;2.97;;;;;;;13.59;39.94;98540.06;5024995;28;20241;-72
2021/04/17 11:31:57;;;;;;;5.00;2.60;;;;;;;13.32;39.57;98539.22;5032242;28;20204;-69
2021/04/17 11:34:24;;;;;;;4.47;2.40;;;;;;;13.59;40.50;98537.38;5030397;28;20214;-69
2021/04/17 11:36:51;;;;;;;3.23;2.40;;;;;;;12.66;41.99;98532.06;5031059;28;20716;-71
2021/04/17 11:39:18;;;;;;;3.50;2.57;;;;;;;12.77;41.02;98524.25;5029935;28;20234;-69
2021/04/17 11:41:46;;;;;;;3.53;2.50;;;;;;;12.58;41.06;98527.69;5019883;28;20198;-71
2021/04/17 11:44:14;;;;;;;4.27;2.60;;;;;;;13.59;39.70;98530.19;5029379;28;20202;-71
2021/04/17 11:46:40;;;;;;;3.17;2.37;;;;;;;13.55;41.18;98512.00;5017697;28;20227;-71
2021/04/17 11:49:08;;;;;;;5.73;2.50;;;;;;;13.32;41.22;98512.41;5027027;28;20298;-70
2021/04/17 11:51:35;;;;;;;4.87;2.43;;;;;;;14.42;38.12;98514.13;5019334;28;20816;-70
2021/04/17 11:54:01;;;;;;;4.93;2.87;;;;;;;13.74;38.84;98514.69;5026600;28;20211;-70